sensor_id;sensor_type;location;lat;lon;timestamp;pressure;altitude;pressure_sealevel;temperature;humidity
43071;BME280;36278;47.952;21.714;2023-04-02T00:01:44;99160.97;;;9.98;100.00
43071;BME280;36278;47.952;21.714;2023-04-02T00:04:22;99171.41;;;10.00;100.00
43071;BME280;36278;47.952;21.714;2023-04-02T00:06:52;99165.28;;;9.99;100.00
43071;BME280;36278;47.952;21.714;2023-04-02T00:09:30;99165.03;;;10.02;100.00
43071;BME280;36278;47.952;21.714;2023-04-02T00:11:57;99171.16;;;10.03;100.00
43071;BME280;36278;47.952;21.714;2023-04-02T00:14:28;99170.44;;;10.01;100.00
43071;BME280;36278;47.952;21.714;2023-04-02T00:16:56;99180.91;;;10.02;100.00
43071;BME280;36278;47.952;21.714;2023-04-02T00:22:24;99178.50;;;9.99;100.00
43071;BME280;36278;47.952;21.714;2023-04-02T00:24:52;99180.31;;;9.99;100.00
43071;BME280;36278;47.952;21.714;2023-04-02T00:27:19;99184.94;;;9.97;100.00
43071;BME280;36278;47.952;21.714;2023-04-02T00:29:50;99186.06;;;9.94;100.00
43071;BME280;36278;47.952;21.714;2023-04-02T00:32:19;99191.59;;;9.91;100.00
43071;BME280;36278;47.952;21.714;2023-04-02T00:34:46;99190.38;;;9.86;100.00
43071;BME280;36278;47.952;21.714;2023-04-02T00:37:19;99193.72;;;9.88;100.00
43071;BME280;36278;47.952;21.714;2023-04-02T00:40:17;99196.50;;;9.86;100.00
43071;BME280;36278;47.952;21.714;2023-04-02T00:42:45;99189.78;;;9.82;100.00
43071;BME280;36278;47.952;21.714;2023-04-02T00:45:34;99189.38;;;9.77;100.00
43071;BME280;36278;47.952;21.714;2023-04-02T00:50:56;99196.06;;;9.62;100.00
43071;BME280;36278;47.952;21.714;2023-04-02T00:53:26;99201.88;;;9.55;100.00
43071;BME280;36278;47.952;21.714;2023-04-02T00:55:53;99205.38;;;9.56;100.00
43071;BME280;36278;47.952;21.714;2023-04-02T00:58:25;99201.88;;;9.46;100.00
43071;BME280;36278;47.952;21.714;2023-04-02T01:00:52;99208.13;;;9.45;100.00
43071;BME280;36278;47.952;21.714;2023-04-02T01:05:46;99206.31;;;9.45;100.00
43071;BME280;36278;47.952;21.714;2023-04-02T01:14:18;99219.53;;;9.45;100.00
43071;BME280;36278;47.952;21.714;2023-04-02T01:17:01;99228.41;;;9.44;100.00
43071;BME280;36278;47.952;21.714;2023-04-02T01:19:46;99222.75;;;9.49;100.00
43071;BME280;36278;47.952;21.714;2023-04-02T01:22:36;99220.09;;;9.49;100.00
43071;BME280;36278;47.952;21.714;2023-04-02T01:25:02;99224.69;;;9.47;100.00
43071;BME280;36278;47.952;21.714;2023-04-02T01:27:37;99237.38;;;9.53;100.00
43071;BME280;36278;47.952;21.714;2023-04-02T01:30:05;99237.47;;;9.51;100.00
43071;BME280;36278;47.952;21.714;2023-04-02T01:32:32;99235.97;;;9.59;100.00
43071;BME280;36278;47.952;21.714;2023-04-02T01:34:58;99240.28;;;9.60;100.00
43071;BME280;36278;47.952;21.714;2023-04-02T01:42:37;99234.16;;;9.69;100.00
43071;BME280;36278;47.952;21.714;2023-04-02T01:45:14;99230.59;;;9.70;100.00
43071;BME280;36278;47.952;21.714;2023-04-02T01:47:41;99234.31;;;9.77;100.00
43071;BME280;36278;47.952;21.714;2023-04-02T01:50:24;99241.44;;;9.76;100.00
43071;BME280;36278;47.952;21.714;2023-04-02T01:52:58;99231.69;;;9.77;100.00
43071;BME280;36278;47.952;21.714;2023-04-02T01:55:39;99239.06;;;9.73;100.00
43071;BME280;36278;47.952;21.714;2023-04-02T01:58:06;99238.53;;;9.79;100.00
43071;BME280;36278;47.952;21.714;2023-04-02T02:00:34;99236.56;;;9.81;100.00
43071;BME280;36278;47.952;21.714;2023-04-02T02:03:01;99236.03;;;9.78;100.00
43071;BME280;36278;47.952;21.714;2023-04-02T02:05:28;99247.16;;;9.81;100.00
43071;BME280;36278;47.952;21.714;2023-04-02T02:07:55;99237.69;;;9.79;100.00
43071;BME280;36278;47.952;21.714;2023-04-02T02:10:41;99248.66;;;9.84;100.00
43071;BME280;36278;47.952;21.714;2023-04-02T02:13:13;99248.41;;;9.87;100.00
43071;BME280;36278;47.952;21.714;2023-04-02T02:15:40;99247.16;;;9.81;100.00
43071;BME280;36278;47.952;21.714;2023-04-02T02:18:09;99254.53;;;9.88;100.00
43071;BME280;36278;47.952;21.714;2023-04-02T02:20:35;99236.03;;;9.78;100.00
43071;BME280;36278;47.952;21.714;2023-04-02T02:23:02;99253.84;;;9.86;100.00
43071;BME280;36278;47.952;21.714;2023-04-02T02:25:33;99250.63;;;9.82;100.00
43071;BME280;36278;47.952;21.714;2023-04-02T02:28:19;99253.28;;;9.82;100.00
43071;BME280;36278;47.952;21.714;2023-04-02T02:30:49;99261.66;;;9.87;100.00
43071;BME280;36278;47.952;21.714;2023-04-02T02:33:30;99262.31;;;9.79;100.00
43071;BME280;36278;47.952;21.714;2023-04-02T02:36:07;99262.19;;;9.81;100.00
43071;BME280;36278;47.952;21.714;2023-04-02T02:41:51;99263.41;;;9.77;100.00
43071;BME280;36278;47.952;21.714;2023-04-02T02:46:56;99263.69;;;9.74;100.00
43071;BME280;36278;47.952;21.714;2023-04-02T02:49:29;99256.44;;;9.66;100.00
43071;BME280;36278;47.952;21.714;2023-04-02T02:54:40;99265.50;;;9.73;100.00
43071;BME280;36278;47.952;21.714;2023-04-02T02:57:12;99268.69;;;9.67;100.00
43071;BME280;36278;47.952;21.714;2023-04-02T02:59:38;99265.91;;;9.69;100.00
43071;BME280;36278;47.952;21.714;2023-04-02T03:02:05;99267.47;;;9.71;100.00
43071;BME280;36278;47.952;21.714;2023-04-02T03:04:34;99272.63;;;9.73;100.00
43071;BME280;36278;47.952;21.714;2023-04-02T03:07:01;99273.31;;;9.75;100.00
43071;BME280;36278;47.952;21.714;2023-04-02T03:12:43;99274.88;;;9.77;100.00
43071;BME280;36278;47.952;21.714;2023-04-02T03:18:03;99282.50;;;9.80;100.00
43071;BME280;36278;47.952;21.714;2023-04-02T03:20:46;99282.66;;;9.79;100.00
43071;BME280;36278;47.952;21.714;2023-04-02T03:26:26;99293.31;;;9.58;100.00
43071;BME280;36278;47.952;21.714;2023-04-02T03:31:46;99284.78;;;9.45;100.00
43071;BME280;36278;47.952;21.714;2023-04-02T03:34:21;99281.72;;;9.49;100.00
43071;BME280;36278;47.952;21.714;2023-04-02T03:37:06;99287.31;;;9.46;100.00
43071;BME280;36278;47.952;21.714;2023-04-02T03:39:42;99286.72;;;9.43;100.00
43071;BME280;36278;47.952;21.714;2023-04-02T03:42:16;99289.19;;;9.35;100.00
43071;BME280;36278;47.952;21.714;2023-04-02T03:44:49;99294.06;;;9.30;100.00
43071;BME280;36278;47.952;21.714;2023-04-02T03:47:22;99295.97;;;9.27;100.00
43071;BME280;36278;47.952;21.714;2023-04-02T03:50:08;99295.72;;;9.31;100.00
43071;BME280;36278;47.952;21.714;2023-04-02T03:52:36;99302.81;;;9.30;100.00
43071;BME280;36278;47.952;21.714;2023-04-02T03:55:20;99310.88;;;9.29;100.00
43071;BME280;36278;47.952;21.714;2023-04-02T04:03:08;99319.94;;;9.36;100.00
43071;BME280;36278;47.952;21.714;2023-04-02T04:05:36;99321.63;;;9.37;100.00
43071;BME280;36278;47.952;21.714;2023-04-02T04:08:07;99324.00;;;9.40;100.00
43071;BME280;36278;47.952;21.714;2023-04-02T04:10:37;99328.31;;;9.41;100.00
43071;BME280;36278;47.952;21.714;2023-04-02T04:13:14;99326.22;;;9.44;100.00
43071;BME280;36278;47.952;21.714;2023-04-02T04:16:23;99324.16;;;9.48;100.00
43071;BME280;36278;47.952;21.714;2023-04-02T04:18:46;99327.50;;;9.50;100.00
43071;BME280;36278;47.952;21.714;2023-04-02T04:21:25;99343.13;;;9.53;100.00
43071;BME280;36278;47.952;21.714;2023-04-02T04:24:05;99338.91;;;9.50;100.00
43071;BME280;36278;47.952;21.714;2023-04-02T04:26:41;99346.72;;;9.52;100.00
43071;BME280;36278;47.952;21.714;2023-04-02T04:31:40;99349.34;;;9.52;100.00
43071;BME280;36278;47.952;21.714;2023-04-02T04:34:35;99355.75;;;9.49;100.00
43071;BME280;36278;47.952;21.714;2023-04-02T04:37:16;99352.13;;;9.50;100.00
43071;BME280;36278;47.952;21.714;2023-04-02T04:40:17;99352.28;;;9.49;100.00
43071;BME280;36278;47.952;21.714;2023-04-02T04:42:42;99363.16;;;9.55;100.00
43071;BME280;36278;47.952;21.714;2023-04-02T04:47:57;99369.97;;;9.58;100.00
43071;BME280;36278;47.952;21.714;2023-04-02T04:50:33;99380.59;;;9.68;100.00
43071;BME280;36278;47.952;21.714;2023-04-02T04:53:12;99386.16;;;9.65;100.00
43071;BME280;36278;47.952;21.714;2023-04-02T04:55:42;99378.38;;;9.63;100.00
43071;BME280;36278;47.952;21.714;2023-04-02T04:58:22;99387.66;;;9.58;100.00
43071;BME280;36278;47.952;21.714;2023-04-02T05:03:54;99383.22;;;9.68;100.00
43071;BME280;36278;47.952;21.714;2023-04-02T05:10:15;99384.66;;;9.72;100.00
43071;BME280;36278;47.952;21.714;2023-04-02T05:17:49;99383.31;;;9.87;100.00
43071;BME280;36278;47.952;21.714;2023-04-02T05:23:20;99380.84;;;9.95;99.25
43071;BME280;36278;47.952;21.714;2023-04-02T05:25:53;99388.94;;;10.03;97.97
43071;BME280;36278;47.952;21.714;2023-04-02T05:31:05;99385.34;;;10.14;96.91
43071;BME280;36278;47.952;21.714;2023-04-02T05:33:35;99393.72;;;10.19;96.76
43071;BME280;36278;47.952;21.714;2023-04-02T05:38:34;99396.66;;;10.26;96.96
43071;BME280;36278;47.952;21.714;2023-04-02T05:41:04;99408.53;;;10.31;94.94
43071;BME280;36278;47.952;21.714;2023-04-02T05:43:33;99394.44;;;10.31;94.83
43071;BME280;36278;47.952;21.714;2023-04-02T05:46:23;99403.81;;;10.45;94.48
43071;BME280;36278;47.952;21.714;2023-04-02T05:48:55;99403.28;;;10.51;93.73
43071;BME280;36278;47.952;21.714;2023-04-02T05:51:27;99399.50;;;10.53;94.05
43071;BME280;36278;47.952;21.714;2023-04-02T05:53:58;99407.31;;;10.55;92.99
43071;BME280;36278;47.952;21.714;2023-04-02T05:59:19;99412.06;;;10.61;92.45
43071;BME280;36278;47.952;21.714;2023-04-02T06:02:03;99410.78;;;10.65;92.74
43071;BME280;36278;47.952;21.714;2023-04-02T06:04:49;99412.19;;;10.79;91.43
43071;BME280;36278;47.952;21.714;2023-04-02T06:10:07;99416.50;;;10.89;93.05
43071;BME280;36278;47.952;21.714;2023-04-02T06:13:07;99423.75;;;10.97;90.95
43071;BME280;36278;47.952;21.714;2023-04-02T06:15:35;99420.84;;;11.00;90.73
43071;BME280;36278;47.952;21.714;2023-04-02T06:18:07;99430.84;;;11.06;91.43
43071;BME280;36278;47.952;21.714;2023-04-02T06:20:33;99428.94;;;11.08;90.48
43071;BME280;36278;47.952;21.714;2023-04-02T06:23:03;99420.81;;;11.19;90.42
43071;BME280;36278;47.952;21.714;2023-04-02T06:25:45;99433.63;;;11.14;89.73
43071;BME280;36278;47.952;21.714;2023-04-02T06:28:23;99418.56;;;11.15;89.98
43071;BME280;36278;47.952;21.714;2023-04-02T06:30:53;99431.69;;;11.26;88.80
43071;BME280;36278;47.952;21.714;2023-04-02T06:33:22;99429.44;;;11.31;89.16
43071;BME280;36278;47.952;21.714;2023-04-02T06:35:49;99435.69;;;11.40;88.10
43071;BME280;36278;47.952;21.714;2023-04-02T06:38:23;99446.75;;;11.35;87.35
43071;BME280;36278;47.952;21.714;2023-04-02T06:40:53;99447.69;;;11.54;88.21
43071;BME280;36278;47.952;21.714;2023-04-02T06:43:38;99450.59;;;11.60;87.40
43071;BME280;36278;47.952;21.714;2023-04-02T06:46:12;99459.34;;;11.70;88.32
43071;BME280;36278;47.952;21.714;2023-04-02T06:48:41;99464.66;;;11.70;87.09
43071;BME280;36278;47.952;21.714;2023-04-02T06:51:11;99468.41;;;11.87;85.95
43071;BME280;36278;47.952;21.714;2023-04-02T06:53:42;99467.69;;;11.95;86.11
43071;BME280;36278;47.952;21.714;2023-04-02T06:56:35;99469.22;;;11.97;85.75
43071;BME280;36278;47.952;21.714;2023-04-02T06:59:02;99466.69;;;11.96;85.23
43071;BME280;36278;47.952;21.714;2023-04-02T07:01:35;99472.84;;;11.96;86.79
43071;BME280;36278;47.952;21.714;2023-04-02T07:04:02;99466.81;;;12.04;84.72
43071;BME280;36278;47.952;21.714;2023-04-02T07:06:27;99461.22;;;12.07;84.10
43071;BME280;36278;47.952;21.714;2023-04-02T07:08:53;99472.47;;;12.19;82.80
43071;BME280;36278;47.952;21.714;2023-04-02T07:11:21;99472.31;;;12.20;82.25
43071;BME280;36278;47.952;21.714;2023-04-02T07:13:49;99480.88;;;12.42;83.57
43071;BME280;36278;47.952;21.714;2023-04-02T07:16:20;99473.09;;;12.58;82.22
43071;BME280;36278;47.952;21.714;2023-04-02T07:18:46;99468.94;;;12.73;83.27
43071;BME280;36278;47.952;21.714;2023-04-02T07:21:12;99478.41;;;12.58;81.47
43071;BME280;36278;47.952;21.714;2023-04-02T07:23:38;99484.91;;;12.46;80.40
43071;BME280;36278;47.952;21.714;2023-04-02T07:26:04;99478.81;;;12.63;81.44
43071;BME280;36278;47.952;21.714;2023-04-02T07:28:30;99476.69;;;12.84;80.86
43071;BME280;36278;47.952;21.714;2023-04-02T07:30:56;99482.63;;;12.96;79.81
43071;BME280;36278;47.952;21.714;2023-04-02T07:33:24;99486.56;;;12.92;80.64
43071;BME280;36278;47.952;21.714;2023-04-02T07:35:52;99492.03;;;12.90;78.11
43071;BME280;36278;47.952;21.714;2023-04-02T07:38:17;99484.56;;;13.22;76.99
43071;BME280;36278;47.952;21.714;2023-04-02T07:40:43;99489.19;;;13.37;77.05
43071;BME280;36278;47.952;21.714;2023-04-02T07:43:09;99487.38;;;13.64;75.65
43071;BME280;36278;47.952;21.714;2023-04-02T07:45:34;99481.78;;;14.01;73.92
43071;BME280;36278;47.952;21.714;2023-04-02T07:48:11;99493.00;;;14.13;73.66
43071;BME280;36278;47.952;21.714;2023-04-02T07:50:36;99483.13;;;14.05;73.17
43071;BME280;36278;47.952;21.714;2023-04-02T07:53:02;99488.25;;;13.98;74.31
43071;BME280;36278;47.952;21.714;2023-04-02T07:55:28;99505.00;;;13.65;75.25
43071;BME280;36278;47.952;21.714;2023-04-02T07:57:55;99495.34;;;13.90;74.49
43071;BME280;36278;47.952;21.714;2023-04-02T08:00:22;99500.56;;;13.73;74.49
43071;BME280;36278;47.952;21.714;2023-04-02T08:02:49;99501.47;;;13.82;74.14
43071;BME280;36278;47.952;21.714;2023-04-02T08:05:15;99503.28;;;14.08;74.22
43071;BME280;36278;47.952;21.714;2023-04-02T08:07:41;99513.25;;;14.06;72.01
43071;BME280;36278;47.952;21.714;2023-04-02T08:10:08;99500.84;;;13.88;73.37
43071;BME280;36278;47.952;21.714;2023-04-02T08:12:35;99511.00;;;13.67;75.33
43071;BME280;36278;47.952;21.714;2023-04-02T08:15:01;99513.19;;;13.97;75.12
43071;BME280;36278;47.952;21.714;2023-04-02T08:17:28;99511.53;;;13.96;74.03
43071;BME280;36278;47.952;21.714;2023-04-02T08:19:59;99510.22;;;14.00;72.75
43071;BME280;36278;47.952;21.714;2023-04-02T08:22:28;99506.41;;;14.37;71.67
43071;BME280;36278;47.952;21.714;2023-04-02T08:24:54;99506.19;;;14.22;71.64
43071;BME280;36278;47.952;21.714;2023-04-02T08:27:24;99505.69;;;14.19;71.27
43071;BME280;36278;47.952;21.714;2023-04-02T08:29:49;99507.09;;;14.39;71.78
43071;BME280;36278;47.952;21.714;2023-04-02T08:32:15;99517.28;;;14.10;69.69
43071;BME280;36278;47.952;21.714;2023-04-02T08:34:42;99515.47;;;14.10;70.60
43071;BME280;36278;47.952;21.714;2023-04-02T08:37:10;99522.31;;;14.21;69.52
43071;BME280;36278;47.952;21.714;2023-04-02T08:39:35;99512.66;;;14.20;69.75
43071;BME280;36278;47.952;21.714;2023-04-02T08:47:35;99528.78;;;14.44;68.78
43071;BME280;36278;47.952;21.714;2023-04-02T08:50:11;99527.22;;;14.68;68.92
43071;BME280;36278;47.952;21.714;2023-04-02T08:52:39;99522.13;;;14.91;67.52
43071;BME280;36278;47.952;21.714;2023-04-02T08:55:23;99528.16;;;15.09;63.27
43071;BME280;36278;47.952;21.714;2023-04-02T08:58:49;99521.03;;;15.50;64.87
43071;BME280;36278;47.952;21.714;2023-04-02T09:00:52;99522.69;;;15.43;63.65
43071;BME280;36278;47.952;21.714;2023-04-02T09:03:23;99532.53;;;15.83;61.29
43071;BME280;36278;47.952;21.714;2023-04-02T09:05:52;99522.22;;;15.72;59.91
43071;BME280;36278;47.952;21.714;2023-04-02T09:08:23;99540.88;;;15.96;60.32
43071;BME280;36278;47.952;21.714;2023-04-02T09:11:08;99532.50;;;16.08;59.55
43071;BME280;36278;47.952;21.714;2023-04-02T09:13:44;99531.28;;;16.18;57.68
43071;BME280;36278;47.952;21.714;2023-04-02T09:16:15;99531.38;;;16.41;59.80
43071;BME280;36278;47.952;21.714;2023-04-02T09:18:42;99523.44;;;16.72;57.98
43071;BME280;36278;47.952;21.714;2023-04-02T09:23:47;99529.16;;;16.53;60.60
43071;BME280;36278;47.952;21.714;2023-04-02T09:26:29;99541.09;;;16.34;61.25
43071;BME280;36278;47.952;21.714;2023-04-02T09:31:41;99541.72;;;15.40;60.98
43071;BME280;36278;47.952;21.714;2023-04-02T09:36:58;99543.38;;;15.57;61.39
43071;BME280;36278;47.952;21.714;2023-04-02T09:39:31;99547.88;;;15.24;60.69
43071;BME280;36278;47.952;21.714;2023-04-02T09:41:56;99550.63;;;15.06;63.21
43071;BME280;36278;47.952;21.714;2023-04-02T09:44:26;99545.66;;;15.03;63.82
43071;BME280;36278;47.952;21.714;2023-04-02T09:47:05;99549.28;;;14.94;64.41
43071;BME280;36278;47.952;21.714;2023-04-02T09:49:47;99555.28;;;14.88;63.62
43071;BME280;36278;47.952;21.714;2023-04-02T09:52:28;99549.28;;;14.94;64.29
43071;BME280;36278;47.952;21.714;2023-04-02T09:55:26;99555.03;;;15.16;63.04
43071;BME280;36278;47.952;21.714;2023-04-02T10:00:37;99559.31;;;15.00;60.48
43071;BME280;36278;47.952;21.714;2023-04-02T10:03:24;99563.84;;;15.08;61.61
43071;BME280;36278;47.952;21.714;2023-04-02T10:06:08;99561.31;;;15.14;59.97
43071;BME280;36278;47.952;21.714;2023-04-02T10:08:36;99562.53;;;15.28;61.13
43071;BME280;36278;47.952;21.714;2023-04-02T10:11:07;99554.88;;;15.25;62.91
43071;BME280;36278;47.952;21.714;2023-04-02T10:13:48;99557.38;;;15.27;61.45
43071;BME280;36278;47.952;21.714;2023-04-02T10:16:24;99562.41;;;15.62;62.08
43071;BME280;36278;47.952;21.714;2023-04-02T10:18:55;99559.03;;;15.36;61.24
43071;BME280;36278;47.952;21.714;2023-04-02T10:21:27;99563.72;;;15.58;61.85
43071;BME280;36278;47.952;21.714;2023-04-02T10:23:54;99560.75;;;15.86;59.58
43071;BME280;36278;47.952;21.714;2023-04-02T10:26:35;99570.22;;;16.21;58.85
43071;BME280;36278;47.952;21.714;2023-04-02T10:29:33;99560.66;;;16.26;57.38
43071;BME280;36278;47.952;21.714;2023-04-02T10:32:22;99573.94;;;15.79;58.66
43071;BME280;36278;47.952;21.714;2023-04-02T10:35:08;99567.75;;;15.62;59.17
43071;BME280;36278;47.952;21.714;2023-04-02T10:40:38;99570.56;;;16.02;59.11
43071;BME280;36278;47.952;21.714;2023-04-02T10:51:40;99565.91;;;15.63;59.33
43071;BME280;36278;47.952;21.714;2023-04-02T10:57:02;99562.41;;;15.87;61.27
43071;BME280;36278;47.952;21.714;2023-04-02T10:59:33;99555.91;;;15.97;58.47
43071;BME280;36278;47.952;21.714;2023-04-02T11:02:01;99570.53;;;16.26;58.95
43071;BME280;36278;47.952;21.714;2023-04-02T11:04:31;99569.34;;;16.20;58.17
43071;BME280;36278;47.952;21.714;2023-04-02T11:07:13;99576.59;;;16.59;58.03
43071;BME280;36278;47.952;21.714;2023-04-02T11:09:44;99574.56;;;16.14;58.37
43071;BME280;36278;47.952;21.714;2023-04-02T11:14:46;99563.63;;;16.48;56.25
43071;BME280;36278;47.952;21.714;2023-04-02T11:17:13;99569.38;;;16.76;55.81
43071;BME280;36278;47.952;21.714;2023-04-02T11:19:40;99564.41;;;17.04;56.67
43071;BME280;36278;47.952;21.714;2023-04-02T11:22:20;99556.22;;;17.28;55.69
43071;BME280;36278;47.952;21.714;2023-04-02T11:24:51;99558.59;;;17.69;54.68
43071;BME280;36278;47.952;21.714;2023-04-02T11:32:46;99561.13;;;16.86;54.63
43071;BME280;36278;47.952;21.714;2023-04-02T11:38:00;99569.25;;;16.53;55.38
43071;BME280;36278;47.952;21.714;2023-04-02T11:46:05;99570.03;;;16.22;56.33
43071;BME280;36278;47.952;21.714;2023-04-02T11:48:47;99580.03;;;16.20;55.65
43071;BME280;36278;47.952;21.714;2023-04-02T11:53:48;99575.06;;;16.09;56.34
43071;BME280;36278;47.952;21.714;2023-04-02T11:56:18;99573.75;;;16.05;56.85
43071;BME280;36278;47.952;21.714;2023-04-02T12:05:07;99562.75;;;17.49;53.63
43071;BME280;36278;47.952;21.714;2023-04-02T12:10:17;99557.25;;;16.96;53.87
43071;BME280;36278;47.952;21.714;2023-04-02T12:12:43;99547.75;;;17.85;51.01
43071;BME280;36278;47.952;21.714;2023-04-02T12:15:36;99550.69;;;18.58;50.56
43071;BME280;36278;47.952;21.714;2023-04-02T12:18:16;99536.56;;;19.57;48.03
43071;BME280;36278;47.952;21.714;2023-04-02T12:20:52;99549.41;;;19.04;47.94
43071;BME280;36278;47.952;21.714;2023-04-02T12:23:20;99548.81;;;18.73;47.64
43071;BME280;36278;47.952;21.714;2023-04-02T12:25:54;99547.69;;;20.10;42.95
43071;BME280;36278;47.952;21.714;2023-04-02T12:28:21;99539.31;;;20.27;42.71
43071;BME280;36278;47.952;21.714;2023-04-02T12:30:47;99528.09;;;20.99;41.33
43071;BME280;36278;47.952;21.714;2023-04-02T12:35:39;99528.09;;;20.16;41.94
43071;BME280;36278;47.952;21.714;2023-04-02T12:38:22;99525.75;;;18.93;44.63
43071;BME280;36278;47.952;21.714;2023-04-02T12:41:03;99523.28;;;18.47;45.35
43071;BME280;36278;47.952;21.714;2023-04-02T12:43:34;99530.16;;;18.20;46.86
43071;BME280;36278;47.952;21.714;2023-04-02T12:46:03;99533.34;;;17.63;46.95
43071;BME280;36278;47.952;21.714;2023-04-02T12:48:30;99535.16;;;17.48;47.07
43071;BME280;36278;47.952;21.714;2023-04-02T12:50:57;99529.56;;;17.12;47.08
43071;BME280;36278;47.952;21.714;2023-04-02T12:53:34;99537.66;;;17.04;48.61
43071;BME280;36278;47.952;21.714;2023-04-02T12:56:01;99543.28;;;17.09;47.66
43071;BME280;36278;47.952;21.714;2023-04-02T13:01:17;99536.41;;;17.37;46.03
43071;BME280;36278;47.952;21.714;2023-04-02T13:03:59;99541.16;;;17.73;46.17
43071;BME280;36278;47.952;21.714;2023-04-02T13:06:25;99535.78;;;18.40;44.39
43071;BME280;36278;47.952;21.714;2023-04-02T13:08:52;99530.94;;;18.80;44.08
43071;BME280;36278;47.952;21.714;2023-04-02T13:11:19;99546.38;;;18.93;44.77
43071;BME280;36278;47.952;21.714;2023-04-02T13:13:47;99527.81;;;19.34;43.49
43071;BME280;36278;47.952;21.714;2023-04-02T13:18:43;99539.41;;;18.18;46.21
43071;BME280;36278;47.952;21.714;2023-04-02T13:23:41;99554.34;;;16.75;48.71
43071;BME280;36278;47.952;21.714;2023-04-02T13:26:23;99547.66;;;17.02;47.93
43071;BME280;36278;47.952;21.714;2023-04-02T13:31:45;99558.22;;;16.72;49.46
43071;BME280;36278;47.952;21.714;2023-04-02T13:34:10;99541.50;;;16.70;48.78
43071;BME280;36278;47.952;21.714;2023-04-02T13:36:36;99553.22;;;16.53;50.70
43071;BME280;36278;47.952;21.714;2023-04-02T13:39:02;99552.38;;;16.13;50.42
43071;BME280;36278;47.952;21.714;2023-04-02T13:41:29;99553.34;;;16.04;51.50
43071;BME280;36278;47.952;21.714;2023-04-02T13:44:00;99549.88;;;15.95;52.66
43071;BME280;36278;47.952;21.714;2023-04-02T13:46:31;99553.06;;;15.99;51.80
43071;BME280;36278;47.952;21.714;2023-04-02T13:48:57;99553.03;;;16.07;51.08
43071;BME280;36278;47.952;21.714;2023-04-02T13:51:34;99546.31;;;16.19;52.21
43071;BME280;36278;47.952;21.714;2023-04-02T13:54:01;99550.19;;;16.17;52.16
43071;BME280;36278;47.952;21.714;2023-04-02T13:56:29;99540.28;;;16.34;50.70
43071;BME280;36278;47.952;21.714;2023-04-02T13:58:55;99543.19;;;16.71;50.73
43071;BME280;36278;47.952;21.714;2023-04-02T14:01:21;99547.34;;;16.66;48.87
43071;BME280;36278;47.952;21.714;2023-04-02T14:03:49;99548.56;;;16.55;50.00
43071;BME280;36278;47.952;21.714;2023-04-02T14:06:25;99541.50;;;16.70;49.61
43071;BME280;36278;47.952;21.714;2023-04-02T14:12:16;99536.09;;;17.55;49.26
43071;BME280;36278;47.952;21.714;2023-04-02T14:18:17;99534.94;;;18.40;47.50
43071;BME280;36278;47.952;21.714;2023-04-02T14:20:35;99537.50;;;17.66;46.96
43071;BME280;36278;47.952;21.714;2023-04-02T14:23:25;99544.66;;;17.51;48.35
43071;BME280;36278;47.952;21.714;2023-04-02T14:34:07;99550.50;;;16.22;49.77
43071;BME280;36278;47.952;21.714;2023-04-02T14:39:16;99540.00;;;17.90;46.78
43071;BME280;36278;47.952;21.714;2023-04-02T14:41:51;99537.97;;;18.07;45.65
43071;BME280;36278;47.952;21.714;2023-04-02T14:44:22;99543.81;;;18.85;45.24
43071;BME280;36278;47.952;21.714;2023-04-02T14:46:54;99543.19;;;18.68;45.42
43071;BME280;36278;47.952;21.714;2023-04-02T14:49:28;99539.28;;;18.70;44.62
43071;BME280;36278;47.952;21.714;2023-04-02T14:52:00;99541.41;;;18.90;43.97
43071;BME280;36278;47.952;21.714;2023-04-02T14:54:37;99532.34;;;18.76;44.32
43071;BME280;36278;47.952;21.714;2023-04-02T14:57:09;99535.34;;;19.02;41.93
43071;BME280;36278;47.952;21.714;2023-04-02T14:59:55;99540.97;;;18.71;42.56
43071;BME280;36278;47.952;21.714;2023-04-02T15:02:33;99539.31;;;19.07;40.81
43071;BME280;36278;47.952;21.714;2023-04-02T15:07:42;99545.19;;;19.38;41.91
43071;BME280;36278;47.952;21.714;2023-04-02T15:10:21;99554.53;;;19.57;40.92
43071;BME280;36278;47.952;21.714;2023-04-02T15:12:49;99557.50;;;19.47;42.31
43071;BME280;36278;47.952;21.714;2023-04-02T15:18:05;99564.88;;;19.02;42.32
43071;BME280;36278;47.952;21.714;2023-04-02T15:21:23;99567.34;;;19.40;42.05
43071;BME280;36278;47.952;21.714;2023-04-02T15:27:15;99573.16;;;17.89;43.32
43071;BME280;36278;47.952;21.714;2023-04-02T15:40:28;99606.09;;;15.45;49.50
43071;BME280;36278;47.952;21.714;2023-04-02T15:43:05;99611.09;;;15.40;50.14
43071;BME280;36278;47.952;21.714;2023-04-02T15:51:50;99621.53;;;15.09;53.49
43071;BME280;36278;47.952;21.714;2023-04-02T15:59:36;99628.09;;;14.89;52.88
43071;BME280;36278;47.952;21.714;2023-04-02T16:10:49;99635.81;;;14.66;54.79
43071;BME280;36278;47.952;21.714;2023-04-02T16:13:34;99647.81;;;14.62;56.26
43071;BME280;36278;47.952;21.714;2023-04-02T16:21:33;99658.56;;;14.26;57.77
43071;BME280;36278;47.952;21.714;2023-04-02T16:24:00;99665.59;;;14.09;58.79
43071;BME280;36278;47.952;21.714;2023-04-02T16:34:54;99688.16;;;13.52;61.93
43071;BME280;36278;47.952;21.714;2023-04-02T16:37:46;99693.72;;;13.40;61.90
43071;BME280;36278;47.952;21.714;2023-04-02T16:40:32;99701.91;;;13.29;61.80
43071;BME280;36278;47.952;21.714;2023-04-02T16:45:59;99724.06;;;12.73;70.38
43071;BME280;36278;47.952;21.714;2023-04-02T16:56:14;99746.13;;;12.07;78.31
43071;BME280;36278;47.952;21.714;2023-04-02T17:04:35;99745.50;;;11.75;79.64
43071;BME280;36278;47.952;21.714;2023-04-02T17:07:09;99755.28;;;11.74;77.53
43071;BME280;36278;47.952;21.714;2023-04-02T17:09:50;99764.31;;;11.72;75.85
43071;BME280;36278;47.952;21.714;2023-04-02T17:12:43;99773.00;;;11.74;76.15
43071;BME280;36278;47.952;21.714;2023-04-02T17:15:33;99763.16;;;11.55;75.55